Time;durP1;ratioP1;P1;durP2;ratioP2;P2;SDS_P1;SDS_P2;PMS_P1;PMS_P2;Temp;Humidity;BMP_temperature;BMP_pressure;BME280_temperature;BME280_humidity;BME280_pressure;Samples;Min_cycle;Max_cycle;Signal;HPM_P1;HPM_P2
2023/02/03 00:00:11;;;;;;;8.25;1.65;;;8.80;99.90;;;;;;5086868;28;20051;-64
2023/02/03 00:02:37;;;;;;;5.25;1.10;;;8.80;99.90;;;;;;5092022;28;20113;-64
2023/02/03 00:05:03;;;;;;;1.10;0.95;;;8.80;99.90;;;;;;5119695;27;20434;-65
2023/02/03 00:07:29;;;;;;;7.25;1.13;;;8.80;99.90;;;;;;5095619;27;20072;-64
2023/02/03 00:09:56;;;;;;;4.07;0.45;;;8.80;99.90;;;;;;5085936;28;20044;-64
2023/02/03 00:12:22;;;;;;;1.15;0.43;;;8.70;99.90;;;;;;5103445;28;20058;-64
2023/02/03 00:14:48;;;;;;;4.90;0.95;;;8.80;99.90;;;;;;5108073;27;20044;-65
2023/02/03 00:17:14;;;;;;;4.45;1.25;;;8.80;99.90;;;;;;5114575;27;20383;-64
2023/02/03 00:19:40;;;;;;;0.75;0.52;;;8.70;99.90;;;;;;5107481;28;20122;-64
2023/02/03 00:22:05;;;;;;;4.50;0.57;;;8.70;99.90;;;;;;5105889;28;20044;-64
2023/02/03 00:24:31;;;;;;;3.03;0.68;;;8.70;99.90;;;;;;5106081;28;20043;-65
2023/02/03 00:26:57;;;;;;;6.45;1.48;;;8.70;99.90;;;;;;5111342;27;20058;-64
2023/02/03 00:29:24;;;;;;;5.55;1.17;;;8.70;99.90;;;;;;5106308;28;20047;-65
2023/02/03 00:31:52;;;;;;;5.82;1.35;;;8.70;99.90;;;;;;5105793;28;20036;-65
2023/02/03 00:34:18;;;;;;;6.28;1.00;;;8.70;99.90;;;;;;5106014;28;20047;-64
2023/02/03 00:36:46;;;;;;;2.67;0.70;;;8.80;99.90;;;;;;5109441;27;20052;-64
2023/02/03 00:39:14;;;;;;;9.70;2.20;;;8.80;99.90;;;;;;5106492;28;20047;-64
2023/02/03 00:41:40;;;;;;;3.53;1.08;;;8.80;99.90;;;;;;5107354;28;20497;-64
2023/02/03 00:44:06;;;;;;;2.33;0.57;;;8.80;99.90;;;;;;5105985;28;20047;-64
2023/02/03 00:46:31;;;;;;;6.80;1.70;;;8.80;99.90;;;;;;5108987;27;20043;-65
2023/02/03 00:48:57;;;;;;;6.18;0.85;;;8.80;99.90;;;;;;5105668;28;20043;-65
2023/02/03 00:51:23;;;;;;;3.08;0.82;;;8.80;99.90;;;;;;5106086;28;20138;-64
2023/02/03 00:53:49;;;;;;;6.88;1.25;;;8.70;99.90;;;;;;5105217;28;20247;-64
2023/02/03 00:56:15;;;;;;;4.20;1.02;;;8.70;99.90;;;;;;5106472;28;20047;-65
2023/02/03 00:58:42;;;;;;;3.92;0.55;;;8.70;99.90;;;;;;5108186;27;20043;-65
2023/02/03 01:01:08;;;;;;;2.63;0.73;;;8.70;99.90;;;;;;5103175;27;20048;-64
2023/02/03 01:03:34;;;;;;;5.22;0.93;;;8.70;99.90;;;;;;5107374;28;20547;-64
2023/02/03 01:06:16;;;;;;;1.27;0.70;;;8.70;99.90;;;;;;5105323;28;20047;-64
2023/02/03 01:08:42;;;;;;;3.10;0.82;;;8.70;99.90;;;;;;5102810;28;20039;-65
2023/02/03 01:11:10;;;;;;;6.40;1.65;;;8.70;99.90;;;;;;5105315;28;20048;-64
2023/02/03 01:13:37;;;;;;;2.90;1.00;;;8.70;99.90;;;;;;5106267;28;20123;-64
2023/02/03 01:16:06;;;;;;;1.48;0.57;;;8.70;99.90;;;;;;5106868;28;20031;-64
2023/02/03 01:18:32;;;;;;;3.83;1.00;;;8.80;99.90;;;;;;5106692;27;20040;-64
2023/02/03 01:21:07;;;;;;;1.58;0.35;;;8.80;99.90;;;;;;5088454;28;20079;-64
2023/02/03 01:23:33;;;;;;;1.42;0.45;;;8.80;99.90;;;;;;5092574;28;20881;-65
2023/02/03 01:26:09;;;;;;;5.78;1.30;;;8.80;99.90;;;;;;5106342;28;20493;-64
2023/02/03 01:28:36;;;;;;;2.28;0.57;;;8.80;99.90;;;;;;5109375;27;20438;-65
2023/02/03 01:31:16;;;;;;;2.85;1.05;;;8.80;99.90;;;;;;5113070;27;20156;-64
2023/02/03 01:33:46;;;;;;;2.10;0.52;;;8.80;99.90;;;;;;5127149;27;20135;-64
2023/02/03 01:36:13;;;;;;;;;;;8.80;99.90;;;;;;5110681;28;20493;-64
2023/02/03 01:38:38;;;;;;;6.63;1.20;;;8.80;99.90;;;;;;5113321;27;19923;-64
2023/02/03 01:41:07;;;;;;;12.02;2.85;;;8.90;99.90;;;;;;5127710;27;20205;-64
2023/02/03 01:43:38;;;;;;;10.80;2.25;;;8.90;99.90;;;;;;5113216;28;20036;-65
2023/02/03 01:46:23;;;;;;;1.35;0.50;;;8.90;99.90;;;;;;5146285;27;20082;-64
2023/02/03 01:48:49;;;;;;;4.68;0.90;;;8.80;99.90;;;;;;5112343;27;20151;-64
2023/02/03 01:51:15;;;;;;;1.48;0.80;;;8.80;99.90;;;;;;5120760;27;20116;-64
2023/02/03 01:53:41;;;;;;;2.88;0.75;;;8.80;99.90;;;;;;5110649;28;20507;-65
2023/02/03 01:56:08;;;;;;;11.50;1.98;;;8.80;99.90;;;;;;5113317;27;20126;-64
2023/02/03 01:58:40;;;;;;;2.78;0.55;;;8.80;99.90;;;;;;5095095;28;20051;-65
2023/02/03 02:01:05;;;;;;;3.67;0.63;;;8.80;99.90;;;;;;5110640;27;20492;-64
2023/02/03 02:03:41;;;;;;;8.23;1.25;;;8.80;99.90;;;;;;5113610;27;20056;-65
2023/02/03 02:06:10;;;;;;;6.57;1.83;;;8.80;99.90;;;;;;5098487;28;20074;-64
2023/02/03 02:08:37;;;;;;;4.22;1.33;;;8.80;99.90;;;;;;5147185;27;20096;-64
2023/02/03 02:11:05;;;;;;;2.80;0.93;;;8.80;99.90;;;;;;5104267;27;20082;-64
2023/02/03 02:13:36;;;;;;;7.20;1.15;;;8.80;99.90;;;;;;5112949;27;20412;-64
2023/02/03 02:16:07;;;;;;;9.52;1.63;;;8.80;99.90;;;;;;5112846;27;20123;-64
2023/02/03 02:18:58;;;;;;;3.67;0.98;;;8.80;99.90;;;;;;5145475;27;20465;-65
2023/02/03 02:21:36;;;;;;;6.10;1.80;;;8.80;99.90;;;;;;5139085;27;20040;-64
2023/02/03 02:24:20;;;;;;;3.05;1.00;;;8.80;99.90;;;;;;5106594;27;20051;-64
2023/02/03 02:27:18;;;;;;;3.53;1.00;;;8.80;99.90;;;;;;5107005;28;20521;-64
2023/02/03 02:29:56;;;;;;;4.43;1.83;;;8.80;99.90;;;;;;5086270;27;20054;-64
2023/02/03 02:32:29;;;;;;;3.83;1.00;;;8.80;99.90;;;;;;5105500;28;20043;-65
2023/02/03 02:34:56;;;;;;;7.57;1.38;;;8.70;99.90;;;;;;5106613;28;20554;-64
2023/02/03 02:37:25;;;;;;;7.82;1.30;;;8.80;99.90;;;;;;5089929;28;20478;-64
2023/02/03 02:40:00;;;;;;;9.83;0.90;;;8.80;99.90;;;;;;5124718;27;20379;-65
2023/02/03 02:42:46;;;;;;;5.05;0.93;;;8.70;99.90;;;;;;5092889;28;20394;-65
2023/02/03 02:45:25;;;;;;;7.07;1.13;;;8.70;99.90;;;;;;5094703;28;20053;-64
2023/02/03 02:47:56;;;;;;;1.83;0.55;;;8.70;99.90;;;;;;5094617;28;20047;-65
2023/02/03 02:50:27;;;;;;;5.03;1.05;;;8.70;99.90;;;;;;5088543;28;20315;-64
2023/02/03 02:52:54;;;;;;;8.80;1.40;;;8.70;99.90;;;;;;5090182;27;20047;-64
2023/02/03 02:55:30;;;;;;;3.85;1.45;;;8.70;99.90;;;;;;5104335;27;20486;-64
2023/02/03 02:57:59;;;;;;;12.45;1.83;;;8.70;99.90;;;;;;5094549;28;20047;-64
2023/02/03 03:00:29;;;;;;;4.25;1.02;;;8.70;99.90;;;;;;5088960;28;20040;-64
2023/02/03 03:02:56;;;;;;;4.95;1.27;;;8.80;99.90;;;;;;5094558;28;20044;-64
2023/02/03 03:05:24;;;;;;;8.75;1.95;;;8.70;99.90;;;;;;5120984;27;20055;-64
2023/02/03 03:07:58;;;;;;;3.00;0.98;;;8.70;99.90;;;;;;5088656;28;20428;-64
2023/02/03 03:10:26;;;;;;;5.57;1.20;;;8.70;99.90;;;;;;5099944;27;20382;-64
2023/02/03 03:13:00;;;;;;;6.05;1.38;;;8.70;99.90;;;;;;5109460;28;20481;-64
2023/02/03 03:15:29;;;;;;;4.43;1.08;;;8.70;99.90;;;;;;5107009;28;20841;-64
2023/02/03 03:18:12;;;;;;;8.15;1.17;;;8.70;99.90;;;;;;5109352;28;20047;-65
2023/02/03 03:20:43;;;;;;;6.70;1.30;;;8.70;99.90;;;;;;5107790;28;20558;-64
2023/02/03 03:23:18;;;;;;;7.18;0.95;;;8.70;99.90;;;;;;5113982;27;20056;-64
2023/02/03 03:26:15;;;;;;;3.63;0.90;;;8.70;99.90;;;;;;5110622;27;20086;-64
2023/02/03 03:28:47;;;;;;;2.28;0.68;;;8.60;99.90;;;;;;5096438;28;20046;-64
2023/02/03 03:31:15;;;;;;;15.38;2.15;;;8.60;99.90;;;;;;5108268;28;20397;-64
2023/02/03 03:33:40;;;;;;;8.20;1.50;;;8.60;99.90;;;;;;5108553;28;20695;-64
2023/02/03 03:36:16;;;;;;;4.50;1.33;;;8.60;99.90;;;;;;5088774;27;20198;-64
2023/02/03 03:38:48;;;;;;;7.82;1.25;;;8.60;99.90;;;;;;5115299;27;20379;-64
2023/02/03 03:41:27;;;;;;;4.22;1.08;;;8.60;99.90;;;;;;5106716;28;20100;-64
2023/02/03 03:43:57;;;;;;;4.82;0.85;;;8.60;99.90;;;;;;5108698;28;20051;-65
2023/02/03 03:46:32;;;;;;;3.60;0.75;;;8.60;99.90;;;;;;5107992;28;20385;-64
2023/02/03 03:49:02;;;;;;;10.48;2.15;;;8.60;99.90;;;;;;5106482;28;20043;-64
2023/02/03 03:51:35;;;;;;;13.07;2.47;;;8.60;99.90;;;;;;5108095;27;20035;-64
2023/02/03 03:54:06;;;;;;;3.58;1.10;;;8.60;99.90;;;;;;5099739;28;20088;-64
2023/02/03 03:56:40;;;;;;;9.68;1.75;;;8.60;99.90;;;;;;5095374;27;20036;-64
2023/02/03 03:59:07;;;;;;;8.73;1.95;;;8.60;99.90;;;;;;5105241;28;20446;-64
2023/02/03 04:01:34;;;;;;;12.00;1.70;;;8.60;99.90;;;;;;5107278;28;20051;-64
2023/02/03 04:04:05;;;;;;;3.55;1.13;;;8.60;99.90;;;;;;5108210;28;20066;-64
2023/02/03 04:06:31;;;;;;;10.45;1.33;;;8.60;99.90;;;;;;5106959;28;20047;-64
2023/02/03 04:08:57;;;;;;;5.72;1.05;;;8.60;99.90;;;;;;5106063;27;20439;-64
2023/02/03 04:14:07;;;;;;;13.93;2.08;;;8.60;99.90;;;;;;5106566;28;20059;-64
2023/02/03 04:16:33;;;;;;;16.17;2.38;;;8.60;99.90;;;;;;5140014;27;20040;-64
2023/02/03 04:18:59;;;;;;;6.80;1.15;;;8.60;99.90;;;;;;5108953;27;20039;-64
2023/02/03 04:21:25;;;;;;;4.95;1.00;;;8.60;99.90;;;;;;5075881;28;20509;-64
2023/02/03 04:23:51;;;;;;;1.98;1.15;;;8.60;99.90;;;;;;5106690;28;20066;-64
2023/02/03 04:26:17;;;;;;;7.10;1.45;;;8.60;99.90;;;;;;5106152;28;20138;-64
2023/02/03 04:28:43;;;;;;;12.85;2.50;;;8.60;99.90;;;;;;5106623;28;20118;-64
2023/02/03 04:31:10;;;;;;;7.20;2.03;;;8.60;99.90;;;;;;5107841;28;20081;-64
2023/02/03 04:33:36;;;;;;;15.15;2.63;;;8.60;99.90;;;;;;5106580;28;20047;-64
2023/02/03 04:36:02;;;;;;;12.00;1.77;;;8.70;99.90;;;;;;5109803;27;20043;-64
2023/02/03 04:38:28;;;;;;;5.88;1.35;;;8.70;99.90;;;;;;5099008;28;20056;-65
2023/02/03 04:40:54;;;;;;;7.72;1.85;;;8.70;99.90;;;;;;5131440;27;20047;-65
2023/02/03 04:43:19;;;;;;;6.80;0.82;;;8.70;99.90;;;;;;5107461;28;20048;-64
2023/02/03 04:45:45;;;;;;;8.27;1.92;;;8.80;99.90;;;;;;5115648;27;20039;-64
2023/02/03 04:48:11;;;;;;;7.05;1.23;;;8.80;99.90;;;;;;5109489;27;20055;-64
2023/02/03 04:50:37;;;;;;;4.05;1.13;;;8.80;99.90;;;;;;5106037;28;20042;-64
2023/02/03 04:53:03;;;;;;;9.55;2.38;;;8.80;99.90;;;;;;5105988;28;20854;-64
2023/02/03 04:55:28;;;;;;;3.13;1.02;;;8.90;99.90;;;;;;5106652;28;20119;-64
2023/02/03 04:57:56;;;;;;;9.20;1.90;;;8.90;99.90;;;;;;5106675;28;20818;-64
2023/02/03 05:00:22;;;;;;;4.40;1.13;;;8.90;99.90;;;;;;5102531;28;20063;-64
2023/02/03 05:02:48;;;;;;;8.25;2.10;;;9.00;99.90;;;;;;5101693;28;20040;-64
2023/02/03 05:05:14;;;;;;;9.52;2.00;;;9.00;99.90;;;;;;5107229;28;20075;-64
2023/02/03 05:07:39;;;;;;;6.03;0.98;;;8.90;99.90;;;;;;5105455;28;20054;-64
2023/02/03 05:10:06;;;;;;;5.28;1.17;;;8.90;99.90;;;;;;5097416;28;20044;-64
2023/02/03 05:12:31;;;;;;;13.15;1.77;;;8.90;99.90;;;;;;5116293;27;20043;-64
2023/02/03 05:14:57;;;;;;;17.17;2.58;;;8.90;99.90;;;;;;5107980;27;20070;-64
2023/02/03 05:17:23;;;;;;;9.20;1.83;;;8.90;99.90;;;;;;5098921;27;20064;-64
2023/02/03 05:19:48;;;;;;;4.88;0.98;;;8.90;99.90;;;;;;5105942;28;20096;-64
2023/02/03 05:22:14;;;;;;;8.60;0.82;;;8.90;99.90;;;;;;5107117;28;20047;-64
2023/02/03 05:24:40;;;;;;;8.65;1.73;;;8.80;99.90;;;;;;5103840;28;20068;-64
2023/02/03 05:27:06;;;;;;;5.15;1.63;;;8.80;99.90;;;;;;5107188;28;20056;-64
2023/02/03 05:29:31;;;;;;;3.38;0.73;;;8.90;99.90;;;;;;5105559;28;20177;-64
2023/02/03 05:31:57;;;;;;;13.80;3.17;;;8.90;99.90;;;;;;5109975;27;20066;-64
2023/02/03 05:34:23;;;;;;;6.90;1.60;;;8.80;99.90;;;;;;5090533;28;20051;-64
2023/02/03 05:36:49;;;;;;;6.20;1.88;;;8.80;99.90;;;;;;5106063;28;20489;-64
2023/02/03 05:39:14;;;;;;;13.60;2.65;;;8.80;99.90;;;;;;5105631;28;20076;-64
2023/02/03 05:41:52;;;;;;;1.95;0.70;;;8.80;99.90;;;;;;5105206;28;20047;-64
2023/02/03 05:44:22;;;;;;;2.83;0.60;;;8.90;99.90;;;;;;5107024;28;20263;-64
2023/02/03 05:46:49;;;;;;;;;;;8.90;99.90;;;;;;5104611;28;20054;-64
2023/02/03 05:49:15;;;;;;;2.95;0.90;;;8.90;99.90;;;;;;5106768;28;19923;-64
2023/02/03 05:51:41;;;;;;;14.65;3.30;;;8.90;99.90;;;;;;5105913;28;20047;-64
2023/02/03 05:54:08;;;;;;;11.98;1.60;;;8.90;99.90;;;;;;5106700;28;20032;-64
2023/02/03 05:56:34;;;;;;;3.03;1.25;;;8.90;99.90;;;;;;5139280;27;20079;-64
2023/02/03 05:59:00;;;;;;;9.57;2.45;;;8.90;99.90;;;;;;5097994;28;20501;-64
2023/02/03 06:01:26;;;;;;;14.68;2.70;;;8.90;99.90;;;;;;5092003;28;20040;-64
2023/02/03 06:03:52;;;;;;;16.83;3.30;;;8.90;99.90;;;;;;5105734;28;20535;-64
2023/02/03 06:06:18;;;;;;;13.07;3.58;;;8.90;99.90;;;;;;5088737;28;20051;-64
2023/02/03 06:08:44;;;;;;;25.10;4.88;;;8.90;99.90;;;;;;5105106;28;20047;-64
2023/02/03 06:11:10;;;;;;;11.15;2.40;;;8.90;99.90;;;;;;5090428;28;20471;-64
2023/02/03 06:13:36;;;;;;;4.30;1.40;;;8.90;99.90;;;;;;5106996;28;20050;-65
2023/02/03 06:16:03;;;;;;;24.10;4.18;;;8.90;99.90;;;;;;5105089;28;20420;-64
2023/02/03 06:18:29;;;;;;;4.10;1.20;;;8.90;99.90;;;;;;5105209;28;20050;-64
2023/02/03 06:20:55;;;;;;;10.25;1.83;;;8.90;99.90;;;;;;5105804;28;20073;-64
2023/02/03 06:23:21;;;;;;;17.20;2.63;;;9.00;99.90;;;;;;5110755;28;20405;-64
2023/02/03 06:25:48;;;;;;;19.02;3.75;;;9.00;99.90;;;;;;5105167;27;20108;-64
2023/02/03 06:28:15;;;;;;;15.73;3.33;;;8.90;99.90;;;;;;5095665;28;20067;-64
2023/02/03 06:30:40;;;;;;;19.90;4.40;;;8.90;99.90;;;;;;5109423;28;20482;-64
2023/02/03 06:33:06;;;;;;;24.67;5.00;;;8.90;99.90;;;;;;5094741;28;20122;-64
2023/02/03 06:35:33;;;;;;;26.63;5.45;;;8.90;99.90;;;;;;5109467;27;20544;-64
2023/02/03 06:37:59;;;;;;;11.65;1.95;;;8.90;99.90;;;;;;5079654;28;20585;-64
2023/02/03 06:40:25;;;;;;;23.77;3.80;;;8.90;99.90;;;;;;5108794;28;20499;-64
2023/02/03 06:42:51;;;;;;;18.58;3.22;;;8.90;99.90;;;;;;5108006;28;20517;-64
2023/02/03 06:45:17;;;;;;;22.73;4.55;;;8.90;99.90;;;;;;5111114;27;20468;-64
2023/02/03 06:47:44;;;;;;;21.15;4.07;;;8.90;99.90;;;;;;5108758;28;20043;-64
2023/02/03 06:50:13;;;;;;;20.48;3.83;;;8.90;99.90;;;;;;5142300;27;20443;-64
2023/02/03 06:52:38;;;;;;;18.00;3.72;;;8.90;99.90;;;;;;5108432;28;20500;-64
2023/02/03 06:55:06;;;;;;;22.42;4.90;;;8.90;99.90;;;;;;5108419;28;20083;-64
2023/02/03 06:57:32;;;;;;;15.15;3.53;;;8.90;99.90;;;;;;5120550;27;20097;-64
2023/02/03 06:59:58;;;;;;;27.80;5.10;;;8.90;99.90;;;;;;5107570;28;20032;-64
2023/02/03 07:02:24;;;;;;;22.42;4.03;;;8.90;99.90;;;;;;5109654;28;20047;-64
2023/02/03 07:04:50;;;;;;;26.17;5.03;;;8.90;99.90;;;;;;5108705;28;20086;-64
2023/02/03 07:07:16;;;;;;;23.70;5.20;;;8.90;99.90;;;;;;5108669;27;20503;-64
2023/02/03 07:09:42;;;;;;;24.70;5.05;;;8.90;99.90;;;;;;5101662;27;20047;-64
2023/02/03 07:12:08;;;;;;;31.52;5.28;;;8.90;99.90;;;;;;5105371;27;20122;-64
2023/02/03 07:14:35;;;;;;;27.20;6.20;;;8.90;99.90;;;;;;5108326;28;20042;-64
2023/02/03 07:17:01;;;;;;;17.73;3.40;;;8.90;99.90;;;;;;5108139;27;20052;-64
2023/02/03 07:19:27;;;;;;;30.63;5.03;;;8.90;99.90;;;;;;5111401;27;20079;-64
2023/02/03 07:21:53;;;;;;;29.45;5.32;;;8.90;99.90;;;;;;5079711;28;20079;-64
2023/02/03 07:24:19;;;;;;;24.20;4.65;;;8.90;99.90;;;;;;5103099;28;20477;-64
2023/02/03 07:26:45;;;;;;;26.20;5.25;;;8.90;99.90;;;;;;5107101;28;20102;-64
2023/02/03 07:29:10;;;;;;;33.97;6.00;;;8.90;99.90;;;;;;5108442;27;20508;-64
2023/02/03 07:31:37;;;;;;;28.48;5.40;;;8.90;99.90;;;;;;5114490;27;20051;-64
2023/02/03 07:34:03;;;;;;;33.03;6.45;;;8.90;99.90;;;;;;5097385;28;20566;-64
2023/02/03 07:36:29;;;;;;;21.35;4.65;;;8.90;99.90;;;;;;5108856;28;20474;-64
2023/02/03 07:38:56;;;;;;;25.95;5.47;;;9.00;99.90;;;;;;5115295;27;20134;-64
2023/02/03 07:41:22;;;;;;;28.00;5.68;;;9.00;99.90;;;;;;5112558;27;20055;-64
2023/02/03 07:43:47;;;;;;;26.75;6.68;;;9.00;99.90;;;;;;5099496;27;20047;-64
2023/02/03 07:46:14;;;;;;;22.58;5.38;;;9.00;99.90;;;;;;5101879;28;20524;-64
2023/02/03 07:48:39;;;;;;;31.35;6.45;;;9.10;99.90;;;;;;5109985;27;20083;-64
2023/02/03 07:51:05;;;;;;;30.55;6.32;;;9.10;99.90;;;;;;5107012;27;20135;-64
2023/02/03 07:53:31;;;;;;;30.95;6.28;;;9.10;99.90;;;;;;5108745;28;20048;-64
2023/02/03 07:56:01;;;;;;;28.73;6.47;;;9.10;99.90;;;;;;5106428;28;20040;-64
2023/02/03 07:58:28;;;;;;;35.38;7.20;;;9.00;99.90;;;;;;5107110;28;20047;-64
2023/02/03 08:00:53;;;;;;;36.67;6.30;;;9.10;99.90;;;;;;5108150;27;20124;-64
2023/02/03 08:03:19;;;;;;;30.55;5.80;;;9.10;99.90;;;;;;5106843;28;20079;-64
2023/02/03 08:05:45;;;;;;;30.95;5.95;;;9.10;99.90;;;;;;5107025;28;20538;-64
2023/02/03 08:08:11;;;;;;;30.77;5.93;;;9.00;99.90;;;;;;5102875;27;20039;-64
2023/02/03 08:10:37;;;;;;;40.85;7.70;;;9.00;99.90;;;;;;5099016;27;20127;-64
2023/02/03 08:13:03;;;;;;;32.08;6.25;;;9.00;99.90;;;;;;5086662;28;20489;-64
2023/02/03 08:15:28;;;;;;;38.47;7.82;;;9.00;99.90;;;;;;5094903;28;20120;-65
2023/02/03 08:17:55;;;;;;;33.85;5.43;;;9.00;99.90;;;;;;5102237;28;20040;-64
2023/02/03 08:20:20;;;;;;;38.05;6.53;;;9.00;99.90;;;;;;5099280;27;20047;-64
2023/02/03 08:22:46;;;;;;;40.25;7.38;;;9.00;99.90;;;;;;5088630;28;20525;-64
2023/02/03 08:25:12;;;;;;;29.95;5.90;;;9.10;99.90;;;;;;5087978;28;20379;-64
2023/02/03 08:27:38;;;;;;;41.95;7.90;;;9.10;99.90;;;;;;5085787;28;20380;-64
2023/02/03 08:30:07;;;;;;;35.85;6.93;;;9.10;99.90;;;;;;5084278;28;20075;-64
2023/02/03 08:32:33;;;;;;;31.20;8.35;;;9.20;99.90;;;;;;5101800;27;20096;-64
2023/02/03 08:34:58;;;;;;;36.78;7.35;;;9.10;99.90;;;;;;5133854;27;20044;-64
2023/02/03 08:37:24;;;;;;;45.25;8.73;;;9.20;99.90;;;;;;5092844;28;20493;-64
2023/02/03 08:39:51;;;;;;;41.63;8.52;;;9.20;99.90;;;;;;5097233;28;20155;-64
2023/02/03 08:42:17;;;;;;;43.72;8.30;;;9.20;99.90;;;;;;5092436;27;20039;-63
2023/02/03 08:44:43;;;;;;;39.92;8.30;;;9.20;99.90;;;;;;5093921;27;20535;-64
2023/02/03 08:47:09;;;;;;;43.47;8.13;;;9.20;99.90;;;;;;5085467;28;20171;-64
2023/02/03 08:49:38;;;;;;;36.45;7.47;;;9.20;99.90;;;;;;5099722;28;20040;-64
2023/02/03 08:52:05;;;;;;;42.47;8.55;;;9.10;99.90;;;;;;5098209;28;20057;-64
2023/02/03 08:54:31;;;;;;;39.90;8.30;;;9.20;99.90;;;;;;5100902;27;20925;-64
2023/02/03 08:56:57;;;;;;;43.95;9.70;;;9.20;99.90;;;;;;5098046;28;20044;-64
2023/02/03 08:59:23;;;;;;;47.80;9.57;;;9.20;99.90;;;;;;5103807;28;20036;-65
2023/02/03 09:01:51;;;;;;;43.30;7.80;;;9.10;99.90;;;;;;5102610;28;20501;-64
2023/02/03 09:04:23;;;;;;;45.45;9.50;;;9.20;99.90;;;;;;5104972;27;20055;-64
2023/02/03 09:06:50;;;;;;;48.58;10.70;;;9.20;99.90;;;;;;5105015;27;20051;-64
2023/02/03 09:09:16;;;;;;;45.45;8.60;;;9.30;99.90;;;;;;5101984;28;20386;-65
2023/02/03 09:11:42;;;;;;;54.33;10.95;;;9.30;99.90;;;;;;5086722;28;20470;-64
2023/02/03 09:14:09;;;;;;;49.70;10.00;;;9.30;99.90;;;;;;5097273;27;20080;-64
2023/02/03 09:16:35;;;;;;;37.67;8.15;;;9.40;99.90;;;;;;5104004;28;20089;-64
2023/02/03 09:19:01;;;;;;;46.58;10.00;;;9.40;99.90;;;;;;5102521;28;20089;-64
2023/02/03 09:21:27;;;;;;;54.85;10.18;;;9.40;99.90;;;;;;5101181;28;20047;-64
2023/02/03 09:23:52;;;;;;;55.95;10.05;;;9.40;99.90;;;;;;5098961;28;20040;-65
2023/02/03 09:26:18;;;;;;;43.50;10.13;;;9.40;99.90;;;;;;5093255;27;20067;-64
2023/02/03 09:28:44;;;;;;;49.58;11.77;;;9.40;99.90;;;;;;5094507;28;20385;-64
2023/02/03 09:31:16;;;;;;;50.55;10.15;;;9.40;99.90;;;;;;5096342;28;20461;-65
2023/02/03 09:33:43;;;;;;;52.42;8.82;;;9.50;99.90;;;;;;5105833;28;20769;-64
2023/02/03 09:36:09;;;;;;;55.30;10.95;;;9.50;99.90;;;;;;5097294;28;20413;-64
2023/02/03 09:38:35;;;;;;;55.90;10.45;;;9.50;99.90;;;;;;5085788;28;20502;-64
2023/02/03 09:41:11;;;;;;;60.85;12.10;;;9.50;99.90;;;;;;5084569;28;20059;-65
2023/02/03 09:43:47;;;;;;;45.15;9.15;;;9.50;99.90;;;;;;5090649;28;20051;-64
2023/02/03 09:46:25;;;;;;;52.10;8.70;;;9.50;99.90;;;;;;5108573;28;20047;-64
2023/02/03 09:49:20;;;;;;;44.55;9.13;;;9.50;99.90;;;;;;5086827;28;20405;-64
2023/02/03 09:51:54;;;;;;;58.50;11.55;;;9.50;99.90;;;;;;5096741;28;20047;-64
2023/02/03 09:54:30;;;;;;;55.03;10.63;;;9.50;99.90;;;;;;5097517;28;20043;-64
2023/02/03 09:56:59;;;;;;;54.28;10.23;;;9.50;99.90;;;;;;5095705;27;20056;-65
2023/02/03 09:59:26;;;;;;;60.08;10.48;;;9.50;99.90;;;;;;5101040;28;20541;-64
2023/02/03 10:02:08;;;;;;;52.60;10.57;;;9.50;99.90;;;;;;5099461;28;20082;-64
2023/02/03 10:04:42;;;;;;;49.10;11.13;;;9.50;99.90;;;;;;5103416;27;20370;-64
2023/02/03 10:07:24;;;;;;;41.05;9.85;;;9.60;99.90;;;;;;5097800;28;20062;-64
2023/02/03 10:10:11;;;;;;;44.17;9.57;;;9.60;99.90;;;;;;5094187;28;20521;-64
2023/02/03 10:12:59;;;;;;;50.75;10.70;;;9.50;99.90;;;;;;5105992;28;20421;-64
2023/02/03 10:15:46;;;;;;;59.22;12.18;;;9.50;99.90;;;;;;5094065;27;20583;-64
2023/02/03 10:18:26;;;;;;;56.00;10.57;;;9.50;99.90;;;;;;5090307;27;20059;-64
2023/02/03 10:21:02;;;;;;;52.95;10.95;;;9.50;99.90;;;;;;5089633;28;20597;-64
2023/02/03 10:23:41;;;;;;;54.35;12.30;;;9.50;99.90;;;;;;5094127;28;20048;-65
2023/02/03 10:26:13;;;;;;;54.50;11.88;;;9.60;99.90;;;;;;5101574;27;20043;-64
2023/02/03 10:28:46;;;;;;;67.28;13.52;;;9.60;99.90;;;;;;5106873;27;20046;-64
2023/02/03 10:31:19;;;;;;;57.65;12.23;;;9.60;99.90;;;;;;5101929;27;20050;-64
2023/02/03 10:33:46;;;;;;;50.47;12.55;;;9.60;99.90;;;;;;5102740;28;20501;-64
2023/02/03 10:36:19;;;;;;;62.05;11.57;;;9.60;99.90;;;;;;5096485;28;20118;-65
2023/02/03 10:39:02;;;;;;;47.08;11.27;;;9.60;99.90;;;;;;5092542;28;20313;-64
2023/02/03 10:41:29;;;;;;;56.45;12.48;;;9.60;99.90;;;;;;5099414;28;20119;-64
2023/02/03 10:43:56;;;;;;;52.88;11.02;;;9.60;99.90;;;;;;5106225;28;20039;-64
2023/02/03 10:46:31;;;;;;;49.75;10.95;;;9.70;99.90;;;;;;5103413;28;20105;-65
2023/02/03 10:48:57;;;;;;;53.47;11.60;;;9.70;99.90;;;;;;5098441;27;20044;-64
2023/02/03 10:51:25;;;;;;;57.13;10.18;;;9.70;99.90;;;;;;5087375;28;20040;-65
2023/02/03 10:53:52;;;;;;;59.67;11.00;;;9.80;99.90;;;;;;5100153;28;20051;-64
2023/02/03 10:56:31;;;;;;;59.78;10.68;;;9.80;99.90;;;;;;5099443;28;20438;-64
2023/02/03 10:58:59;;;;;;;56.53;12.02;;;9.70;99.90;;;;;;5095209;28;20043;-64
2023/02/03 11:01:27;;;;;;;65.78;13.35;;;9.80;99.90;;;;;;5101145;27;20447;-64
2023/02/03 11:04:02;;;;;;;53.90;12.38;;;9.70;99.90;;;;;;5096256;28;20055;-64
2023/02/03 11:06:29;;;;;;;53.10;11.45;;;9.70;99.90;;;;;;5092682;27;20067;-64
2023/02/03 11:08:56;;;;;;;68.50;15.35;;;9.70;99.90;;;;;;5089309;28;20040;-64
2023/02/03 11:11:32;;;;;;;61.75;13.40;;;9.70;99.90;;;;;;5095116;28;20409;-64
2023/02/03 11:14:01;;;;;;;63.13;13.23;;;9.70;99.90;;;;;;5105873;28;20048;-64
2023/02/03 11:16:32;;;;;;;68.30;15.15;;;9.70;99.90;;;;;;5118288;27;20509;-65
2023/02/03 11:19:01;;;;;;;62.75;12.18;;;9.60;99.90;;;;;;5096311;28;20055;-64
2023/02/03 11:21:33;;;;;;;66.82;14.85;;;9.60;99.90;;;;;;5086792;28;20051;-64
2023/02/03 11:24:19;;;;;;;62.83;15.13;;;9.60;99.90;;;;;;5098730;28;20075;-64
2023/02/03 11:26:58;;;;;;;72.95;14.50;;;9.60;99.90;;;;;;5095887;27;20464;-64
2023/02/03 11:29:30;;;;;;;71.97;13.57;;;9.60;99.90;;;;;;5108350;27;20231;-65
2023/02/03 11:32:02;;;;;;;72.03;12.98;;;9.70;99.90;;;;;;5086800;28;20048;-64
2023/02/03 11:34:34;;;;;;;67.43;13.80;;;9.70;99.90;;;;;;5092341;28;20044;-64
2023/02/03 11:37:36;;;;;;;63.35;12.88;;;9.70;99.90;;;;;;5103092;28;20210;-64
2023/02/03 11:40:06;;;;;;;58.92;14.00;;;9.70;99.90;;;;;;5059834;28;20052;-65
2023/02/03 11:42:33;;;;;;;54.75;11.80;;;9.70;99.90;;;;;;5046717;28;20053;-64
2023/02/03 11:45:26;;;;;;;60.33;12.15;;;9.70;99.90;;;;;;5057183;28;20041;-64
2023/02/03 11:48:10;;;;;;;60.17;14.02;;;9.70;99.90;;;;;;5046921;28;20045;-64
2023/02/03 11:50:59;;;;;;;58.95;15.98;;;9.70;99.90;;;;;;5052947;28;20068;-64
2023/02/03 11:53:40;;;;;;;64.60;13.60;;;9.70;99.90;;;;;;5048903;28;20483;-64
2023/02/03 11:56:25;;;;;;;58.45;12.80;;;9.70;99.90;;;;;;5048283;28;20045;-64
2023/02/03 11:59:00;;;;;;;51.33;14.77;;;9.80;99.90;;;;;;5049580;28;20499;-64
2023/02/03 12:02:03;;;;;;;70.38;13.18;;;9.80;99.90;;;;;;5052436;28;20686;-64
2023/02/03 12:04:53;;;;;;;61.90;13.98;;;9.80;99.90;;;;;;5065535;28;20047;-64
2023/02/03 12:07:25;;;;;;;58.67;11.80;;;9.80;99.90;;;;;;5046390;28;20041;-64
2023/02/03 12:10:03;;;;;;;68.50;13.25;;;9.90;99.90;;;;;;5047879;28;20095;-64
2023/02/03 12:12:56;;;;;;;59.30;12.05;;;9.80;99.90;;;;;;5046260;28;20445;-64
2023/02/03 12:15:34;;;;;;;53.60;10.50;;;9.60;99.90;;;;;;5051873;28;20057;-64
2023/02/03 12:18:04;;;;;;;47.00;10.85;;;9.40;99.90;;;;;;5050598;28;20063;-64
2023/02/03 12:20:45;;;;;;;46.15;9.43;;;9.30;99.90;;;;;;5052249;28;20056;-64
2023/02/03 12:23:34;;;;;;;48.80;11.90;;;9.20;99.90;;;;;;5055369;28;20045;-64
2023/02/03 12:26:06;;;;;;;55.17;11.17;;;9.10;99.90;;;;;;5060966;28;20503;-64
2023/02/03 12:28:55;;;;;;;43.15;11.10;;;9.10;99.90;;;;;;5045792;28;20636;-64
2023/02/03 12:31:38;;;;;;;52.88;9.95;;;9.10;99.90;;;;;;5047697;28;20045;-64
2023/02/03 12:34:19;;;;;;;54.63;12.45;;;9.10;99.90;;;;;;5057451;28;20380;-64
2023/02/03 12:36:56;;;;;;;50.17;10.40;;;9.10;99.90;;;;;;5047213;28;20056;-64
2023/02/03 12:39:32;;;;;;;49.75;11.90;;;9.10;99.90;;;;;;5086918;28;20162;-64
2023/02/03 12:42:09;;;;;;;56.38;11.45;;;9.10;99.90;;;;;;5086781;28;20469;-64
2023/02/03 12:44:44;;;;;;;94.63;15.70;;;9.10;99.90;;;;;;5091011;28;20040;-64
2023/02/03 12:47:27;;;;;;;66.05;12.50;;;9.10;99.90;;;;;;5107881;27;20052;-64
2023/02/03 12:49:58;;;;;;;57.70;13.98;;;9.10;99.90;;;;;;5092253;28;20043;-64
2023/02/03 12:52:52;;;;;;;60.97;13.27;;;9.10;99.90;;;;;;5095951;28;20576;-64
2023/02/03 12:55:38;;;;;;;60.45;11.85;;;9.20;99.90;;;;;;5093272;28;20094;-64
2023/02/03 12:58:19;;;;;;;68.60;12.15;;;9.40;99.90;;;;;;5104034;28;20052;-64
2023/02/03 13:01:16;;;;;;;54.08;12.10;;;9.40;99.90;;;;;;5090207;28;20493;-65
2023/02/03 13:03:50;;;;;;;57.15;12.55;;;9.50;99.90;;;;;;5122281;27;20039;-64
2023/02/03 13:06:25;;;;;;;57.05;12.20;;;9.50;99.90;;;;;;5097477;28;20382;-64